createdAt,value
2022-08-03T00:00:41.333Z,58.03
2022-08-03T00:03:24.311Z,57.91
2022-08-03T00:06:07.373Z,57.99
2022-08-03T00:08:50.484Z,58.04
2022-08-03T00:11:33.644Z,57.96
2022-08-03T00:14:16.662Z,58.48
2022-08-03T00:17:00.969Z,58.20
2022-08-03T00:19:43.939Z,58.35
2022-08-03T00:22:26.912Z,58.48
2022-08-03T00:25:09.972Z,58.53
2022-08-03T00:27:52.947Z,58.67
2022-08-03T00:30:36.849Z,58.68
2022-08-03T00:33:21.139Z,58.30
2022-08-03T00:36:05.209Z,58.50
2022-08-03T00:38:48.258Z,58.45
2022-08-03T00:41:31.844Z,58.38
2022-08-03T00:44:14.831Z,58.56
2022-08-03T00:46:58.046Z,58.32
2022-08-03T00:49:43.560Z,58.72
2022-08-03T00:52:26.391Z,58.92
2022-08-03T00:55:10.494Z,58.85
2022-08-03T00:57:54.225Z,58.91
2022-08-03T01:00:38.938Z,58.57
2022-08-03T01:03:21.868Z,59.64
2022-08-03T01:06:17.846Z,59.07
2022-08-03T01:09:04.780Z,58.93
2022-08-03T01:12:00.543Z,59.22
2022-08-03T01:14:57.453Z,58.98
2022-08-03T01:17:48.301Z,59.13
2022-08-03T01:20:35.275Z,59.11
2022-08-03T01:23:50.225Z,59.51
2022-08-03T01:26:49.895Z,59.02
2022-08-03T01:30:00.832Z,59.57
2022-08-03T01:32:59.547Z,59.58
2022-08-03T01:35:46.581Z,59.30
2022-08-03T01:38:34.189Z,58.99
2022-08-03T01:41:21.295Z,59.48
2022-08-03T01:44:28.399Z,59.26
2022-08-03T01:47:13.837Z,59.36
2022-08-03T01:49:58.731Z,59.55
2022-08-03T01:52:45.150Z,59.23
2022-08-03T01:55:30.117Z,59.47
2022-08-03T01:58:16.297Z,59.44
2022-08-03T02:01:02.186Z,59.07
2022-08-03T02:03:56.713Z,59.34
2022-08-03T02:07:01.986Z,59.23
2022-08-03T02:09:50.247Z,59.52
2022-08-03T02:12:35.278Z,59.51
2022-08-03T02:15:20.461Z,59.75
2022-08-03T02:18:06.094Z,59.76
2022-08-03T02:20:51.502Z,59.91
2022-08-03T02:23:34.989Z,60.04
2022-08-03T02:26:22.588Z,59.70
2022-08-03T02:29:11.303Z,59.85
2022-08-03T02:32:00.103Z,59.74
2022-08-03T02:34:47.137Z,59.87
2022-08-03T02:37:35.541Z,60.15
2022-08-03T02:40:20.401Z,59.95
2022-08-03T02:43:06.438Z,59.90
2022-08-03T02:45:51.305Z,59.86
2022-08-03T02:48:37.732Z,60.04
2022-08-03T02:51:22.083Z,60.19
2022-08-03T02:54:08.318Z,60.41
2022-08-03T02:56:53.103Z,59.98
2022-08-03T02:59:36.824Z,60.56
2022-08-03T03:02:21.466Z,60.42
2022-08-03T03:05:55.137Z,60.11
2022-08-03T03:08:18.003Z,60.40
2022-08-03T03:11:03.554Z,60.47
2022-08-03T03:13:47.776Z,60.27
2022-08-03T03:16:32.284Z,60.44
2022-08-03T03:19:16.992Z,60.28
2022-08-03T03:22:01.638Z,60.86
2022-08-03T03:24:45.941Z,61.15
2022-08-03T03:27:30.907Z,60.39
2022-08-03T03:30:15.995Z,60.87
2022-08-03T03:32:59.653Z,60.94
2022-08-03T03:35:45.647Z,60.84
2022-08-03T03:38:28.918Z,60.82
2022-08-03T03:41:12.081Z,60.62
2022-08-03T03:43:56.794Z,60.68
2022-08-03T03:46:40.021Z,61.45
2022-08-03T03:49:23.237Z,60.63
2022-08-03T03:52:07.200Z,60.81
2022-08-03T03:54:50.509Z,60.59
2022-08-03T03:57:35.143Z,60.85
2022-08-03T04:00:20.958Z,60.66
2022-08-03T04:03:04.094Z,60.93
2022-08-03T04:06:04.790Z,61.14
2022-08-03T04:09:13.669Z,60.64
2022-08-03T04:12:01.777Z,61.22
2022-08-03T04:14:45.400Z,60.96
2022-08-03T04:17:32.086Z,61.17
2022-08-03T04:20:16.755Z,61.06
2022-08-03T04:23:01.538Z,61.37
2022-08-03T04:25:45.027Z,61.54
2022-08-03T04:28:31.841Z,61.50
2022-08-03T04:31:16.690Z,61.26
2022-08-03T04:34:01.586Z,61.27
2022-08-03T04:36:48.834Z,61.59
2022-08-03T04:39:33.916Z,61.42
2022-08-03T04:42:17.999Z,61.90
2022-08-03T04:45:03.885Z,61.58
2022-08-03T04:47:47.318Z,61.50
2022-08-03T04:50:32.371Z,61.47
2022-08-03T04:53:21.404Z,61.59
2022-08-03T04:56:08.804Z,61.58
2022-08-03T04:58:51.928Z,61.35
2022-08-03T05:01:35.070Z,61.66
2022-08-03T05:04:18.382Z,61.80
2022-08-03T05:07:12.543Z,61.74
2022-08-03T05:10:01.510Z,61.93
2022-08-03T05:12:48.720Z,62.06
2022-08-03T05:15:31.819Z,61.97
2022-08-03T05:18:14.879Z,61.56
2022-08-03T05:20:57.975Z,61.50
2022-08-03T05:23:42.490Z,61.84
2022-08-03T05:26:25.957Z,61.67
2022-08-03T05:29:09.870Z,61.21
2022-08-03T05:31:52.925Z,61.65
2022-08-03T05:34:36.032Z,61.58
2022-08-03T05:37:19.175Z,62.02
2022-08-03T05:40:04.139Z,61.76
2022-08-03T05:42:47.170Z,61.62
2022-08-03T05:45:30.401Z,61.37
2022-08-03T05:48:13.501Z,61.85
2022-08-03T05:50:56.513Z,61.60
2022-08-03T05:53:40.021Z,61.64
2022-08-03T05:56:25.935Z,61.35
2022-08-03T05:59:35.801Z,61.42
2022-08-03T06:02:12.954Z,61.37
2022-08-03T06:04:56.091Z,61.63
2022-08-03T06:07:39.250Z,61.71
2022-08-03T06:10:35.816Z,61.27
2022-08-03T06:13:22.103Z,61.14
2022-08-03T06:16:05.624Z,61.34
2022-08-03T06:18:48.687Z,61.05
2022-08-03T06:21:31.758Z,60.70
2022-08-03T06:24:14.885Z,61.02
2022-08-03T06:26:58.520Z,60.80
2022-08-03T06:29:42.885Z,61.40
2022-08-03T06:32:25.963Z,61.34
2022-08-03T06:35:10.394Z,60.96
2022-08-03T06:37:53.421Z,60.55
2022-08-03T06:40:40.070Z,60.76
2022-08-03T06:43:23.095Z,59.72
2022-08-03T06:46:07.623Z,59.73
2022-08-03T06:48:50.768Z,59.52
2022-08-03T06:52:03.226Z,59.13
2022-08-03T06:54:37.015Z,59.23
2022-08-03T06:57:20.168Z,59.25
2022-08-03T07:00:09.608Z,59.15
2022-08-03T07:02:58.253Z,58.22
2022-08-03T07:05:42.489Z,57.60
2022-08-03T07:08:33.413Z,57.76
2022-08-03T07:11:17.426Z,56.95
2022-08-03T07:14:00.579Z,56.69
2022-08-03T07:16:43.687Z,56.63
2022-08-03T07:19:28.139Z,56.61
2022-08-03T07:22:11.567Z,56.84
2022-08-03T07:24:54.834Z,56.40
2022-08-03T07:27:38.454Z,56.14
2022-08-03T07:30:21.487Z,55.09
2022-08-03T07:33:05.162Z,55.41
2022-08-03T07:35:49.587Z,54.67
2022-08-03T07:38:32.608Z,54.47
2022-08-03T07:41:15.710Z,54.64
2022-08-03T07:43:58.835Z,54.77
2022-08-03T07:46:44.311Z,54.39
2022-08-03T07:49:28.028Z,54.53
2022-08-03T07:52:29.682Z,54.18
2022-08-03T07:55:12.792Z,54.13
2022-08-03T07:58:06.500Z,54.08
2022-08-03T08:00:51.061Z,54.04
2022-08-03T08:03:52.222Z,53.39
2022-08-03T08:06:35.604Z,53.10
2022-08-03T08:09:20.140Z,52.99
2022-08-03T08:12:03.148Z,52.93
2022-08-03T08:14:46.863Z,52.53
2022-08-03T08:17:30.066Z,52.46
2022-08-03T08:20:16.498Z,52.16
2022-08-03T08:23:22.307Z,52.06
2022-08-03T08:26:14.237Z,51.86
2022-08-03T08:28:57.283Z,51.52
2022-08-03T08:31:40.375Z,50.83
2022-08-03T08:34:23.422Z,50.44
2022-08-03T08:37:06.571Z,50.65
2022-08-03T08:39:49.665Z,50.88
2022-08-03T08:42:34.194Z,51.35
2022-08-03T08:45:18.855Z,50.83
2022-08-03T08:48:08.086Z,50.96
2022-08-03T08:50:55.238Z,50.60
2022-08-03T08:53:40.386Z,50.63
2022-08-03T08:56:26.702Z,50.77
2022-08-03T08:59:11.535Z,50.83
2022-08-03T09:01:58.447Z,50.50
2022-08-03T09:04:41.922Z,50.51
2022-08-03T09:07:25.122Z,49.95
2022-08-03T09:10:12.853Z,50.17
2022-08-03T09:12:56.218Z,49.61
2022-08-03T09:15:42.383Z,49.61
2022-08-03T09:18:44.701Z,49.42
2022-08-03T09:21:32.006Z,49.25
2022-08-03T09:24:37.203Z,49.18
2022-08-03T09:27:23.020Z,48.01
2022-08-03T09:30:33.559Z,47.74
2022-08-03T09:33:19.473Z,46.96
2022-08-03T09:36:02.388Z,45.71
2022-08-03T09:39:02.777Z,46.15
2022-08-03T09:41:48.231Z,46.16
2022-08-03T09:44:35.399Z,45.58
2022-08-03T09:47:29.298Z,45.29
2022-08-03T09:50:13.860Z,45.06
2022-08-03T09:53:03.066Z,43.84
2022-08-03T09:56:35.531Z,44.76
2022-08-03T09:58:59.813Z,44.33
2022-08-03T10:01:42.964Z,43.59
2022-08-03T10:04:26.965Z,42.86
2022-08-03T10:07:12.173Z,42.35
2022-08-03T10:09:57.755Z,41.92
2022-08-03T10:13:01.684Z,41.85
2022-08-03T10:16:23.663Z,40.65
2022-08-03T10:18:48.218Z,39.84
2022-08-03T10:21:35.865Z,39.65
2022-08-03T10:24:26.395Z,38.37
2022-08-03T10:27:12.383Z,37.85
2022-08-03T10:29:57.610Z,37.56
2022-08-03T10:32:43.181Z,37.13
2022-08-03T10:35:27.227Z,37.40
2022-08-03T10:38:17.772Z,35.70
2022-08-03T10:41:03.162Z,34.91
2022-08-03T10:43:50.622Z,35.90
2022-08-03T10:46:36.134Z,34.99
2022-08-03T10:49:35.358Z,35.29
2022-08-03T10:52:32.919Z,34.61
2022-08-03T10:55:49.436Z,34.31
2022-08-03T10:58:57.903Z,33.79
2022-08-03T11:02:00.153Z,33.43
2022-08-03T11:04:45.280Z,32.83
2022-08-03T11:07:28.368Z,31.84
2022-08-03T11:10:31.248Z,31.02
2022-08-03T11:13:17.601Z,31.02
2022-08-03T11:16:21.943Z,30.40
2022-08-03T11:19:07.277Z,31.21
2022-08-03T11:21:55.411Z,30.85
2022-08-03T11:25:00.657Z,28.53
2022-08-03T11:27:43.855Z,30.37
2022-08-03T11:30:29.160Z,30.53
2022-08-03T11:33:30.649Z,30.07
2022-08-03T11:36:32.043Z,30.27
2022-08-03T11:39:17.269Z,28.56
2022-08-03T11:42:00.411Z,29.21
2022-08-03T11:44:47.515Z,28.96
2022-08-03T11:47:31.134Z,29.00
2022-08-03T11:50:17.339Z,28.82
2022-08-03T11:53:00.509Z,27.92
2022-08-03T11:55:44.467Z,28.09
2022-08-03T11:59:17.465Z,27.31
2022-08-03T12:01:31.731Z,27.33
2022-08-03T12:04:17.261Z,27.54
2022-08-03T12:07:02.512Z,27.30
2022-08-03T12:10:03.136Z,27.13
2022-08-03T12:12:46.796Z,27.27
2022-08-03T12:15:34.009Z,27.28
2022-08-03T12:18:20.682Z,26.98
2022-08-03T12:21:09.467Z,26.28
2022-08-03T12:23:59.032Z,25.51
2022-08-03T12:26:58.251Z,25.77
2022-08-03T12:29:42.898Z,26.06
2022-08-03T12:32:40.325Z,25.74
2022-08-03T12:35:24.945Z,26.09
2022-08-03T12:38:08.241Z,25.69
2022-08-03T12:41:04.964Z,25.31
2022-08-03T12:43:50.304Z,25.29
2022-08-03T12:46:35.948Z,25.67
2022-08-03T12:49:19.728Z,25.55
2022-08-03T12:52:07.217Z,25.13
2022-08-03T12:54:57.734Z,25.00
2022-08-03T12:57:45.289Z,24.69
2022-08-03T13:00:31.398Z,24.37
2022-08-03T13:03:42.112Z,24.90
2022-08-03T13:06:20.375Z,24.61
2022-08-03T13:09:05.924Z,24.09
2022-08-03T13:12:05.755Z,24.51
2022-08-03T13:14:54.010Z,23.84
2022-08-03T13:17:37.081Z,23.94
2022-08-03T13:20:22.148Z,24.07
2022-08-03T13:23:10.084Z,24.14
2022-08-03T13:25:56.891Z,23.14
2022-08-03T13:28:40.090Z,24.32
2022-08-03T13:31:24.489Z,24.26
2022-08-03T13:34:08.815Z,24.04
2022-08-03T13:37:09.265Z,24.18
2022-08-03T13:39:58.996Z,23.94
2022-08-03T13:42:43.591Z,24.05
2022-08-03T13:45:27.577Z,23.69
2022-08-03T13:48:12.272Z,23.92
2022-08-03T13:50:55.453Z,23.27
2022-08-03T13:53:38.625Z,23.27
2022-08-03T13:56:21.747Z,23.39
2022-08-03T13:59:04.897Z,23.35
2022-08-03T14:01:55.422Z,23.53
2022-08-03T14:04:40.632Z,23.04
2022-08-03T14:07:23.743Z,23.52
2022-08-03T14:10:07.798Z,23.17
2022-08-03T14:12:50.912Z,23.17
2022-08-03T14:15:37.336Z,22.74
2022-08-03T14:18:27.789Z,22.93
2022-08-03T14:21:14.330Z,22.63
2022-08-03T14:23:57.668Z,22.68
2022-08-03T14:26:41.036Z,22.41
2022-08-03T14:29:24.149Z,23.15
2022-08-03T14:32:09.787Z,22.86
2022-08-03T14:34:55.371Z,22.03
2022-08-03T14:37:39.859Z,22.73
2022-08-03T14:40:23.316Z,22.11
2022-08-03T14:43:06.443Z,22.26
2022-08-03T14:45:52.261Z,22.45
2022-08-03T14:50:10.362Z,21.79
2022-08-03T14:51:38.682Z,22.54
2022-08-03T14:54:36.234Z,22.57
2022-08-03T14:57:19.426Z,22.67
2022-08-03T15:00:02.838Z,21.72
2022-08-03T15:02:46.031Z,22.47
2022-08-03T15:05:29.575Z,22.42
2022-08-03T15:08:12.887Z,22.70
2022-08-03T15:10:57.351Z,22.95
2022-08-03T15:13:41.014Z,23.20
2022-08-03T15:16:24.312Z,23.13
2022-08-03T15:20:05.564Z,23.18
2022-08-03T15:22:19.013Z,23.16
2022-08-03T15:26:04.046Z,23.76
2022-08-03T15:28:09.078Z,23.78
2022-08-03T15:30:53.115Z,23.99
2022-08-03T15:33:36.346Z,24.34
2022-08-03T15:36:19.867Z,25.28
2022-08-03T15:39:02.973Z,25.77
2022-08-03T15:41:46.151Z,26.21
2022-08-03T15:44:30.720Z,25.81
2022-08-03T15:47:13.855Z,26.25
2022-08-03T15:49:57.142Z,26.57
2022-08-03T15:52:40.337Z,26.96
2022-08-03T15:55:23.777Z,27.43
2022-08-03T15:59:09.842Z,26.89
2022-08-03T16:01:14.315Z,27.31
2022-08-03T16:04:00.901Z,27.24
2022-08-03T16:06:44.374Z,28.18
2022-08-03T16:09:43.165Z,27.52
2022-08-03T16:12:27.069Z,28.04
2022-08-03T16:15:11.570Z,28.33
2022-08-03T16:17:56.159Z,28.36
2022-08-03T16:20:39.265Z,28.48
2022-08-03T16:23:25.661Z,29.16
2022-08-03T16:26:13.543Z,28.90
2022-08-03T16:28:56.701Z,28.85
2022-08-03T16:31:39.803Z,29.21
2022-08-03T16:34:35.711Z,29.93
2022-08-03T16:37:36.947Z,29.39
2022-08-03T16:40:21.267Z,29.91
2022-08-03T16:43:18.135Z,29.94
2022-08-03T16:46:02.273Z,30.41
2022-08-03T16:48:45.518Z,30.36
2022-08-03T16:51:40.417Z,30.33
2022-08-03T16:54:33.152Z,31.44
2022-08-03T16:57:29.717Z,30.48
2022-08-03T17:00:33.559Z,31.19
2022-08-03T17:03:24.419Z,31.68
2022-08-03T17:06:09.563Z,30.96
2022-08-03T17:08:55.304Z,31.45
2022-08-03T17:11:47.612Z,31.39
2022-08-03T17:14:31.052Z,31.17
2022-08-03T17:17:17.607Z,31.95
2022-08-03T17:20:04.504Z,31.83
2022-08-03T17:22:56.878Z,31.47
2022-08-03T17:26:02.145Z,31.86
2022-08-03T17:28:57.711Z,31.85
2022-08-03T17:31:48.964Z,32.79
2022-08-03T17:34:33.184Z,32.92
2022-08-03T17:37:50.692Z,32.77
2022-08-03T17:40:20.241Z,32.89
2022-08-03T17:44:13.937Z,33.77
2022-08-03T17:46:12.283Z,34.10
2022-08-03T17:48:55.384Z,34.83
2022-08-03T17:51:46.215Z,34.99
2022-08-03T17:55:54.993Z,35.22
2022-08-03T17:58:02.459Z,35.31
2022-08-03T18:02:00.315Z,35.62
2022-08-03T18:04:13.638Z,35.89
2022-08-03T18:06:59.268Z,36.20
2022-08-03T18:10:06.386Z,36.36
2022-08-03T18:12:55.056Z,36.47
2022-08-03T18:15:43.605Z,36.55
2022-08-03T18:18:35.790Z,36.65
2022-08-03T18:21:18.938Z,36.93
2022-08-03T18:24:05.239Z,37.03
2022-08-03T18:26:50.252Z,37.35
2022-08-03T18:29:34.421Z,37.40
2022-08-03T18:32:17.610Z,37.46
2022-08-03T18:35:04.200Z,37.60
2022-08-03T18:37:51.979Z,37.56
2022-08-03T18:40:35.445Z,37.95
2022-08-03T18:43:46.699Z,37.91
2022-08-03T18:46:46.486Z,38.23
2022-08-03T18:49:41.378Z,38.69
2022-08-03T18:52:32.066Z,39.27
2022-08-03T18:55:27.099Z,39.23
2022-08-03T18:58:22.619Z,39.50
2022-08-03T19:02:00.827Z,39.30
2022-08-03T19:04:26.819Z,39.60
2022-08-03T19:07:11.171Z,39.88
2022-08-03T19:10:00.289Z,39.90
2022-08-03T19:12:52.369Z,39.97
2022-08-03T19:15:41.549Z,39.94
2022-08-03T19:18:37.136Z,40.05
2022-08-03T19:21:20.342Z,40.03
2022-08-03T19:24:09.881Z,40.14
2022-08-03T19:26:56.445Z,40.33
2022-08-03T19:29:58.649Z,40.31
2022-08-03T19:32:48.294Z,40.38
2022-08-03T19:35:54.638Z,40.49
2022-08-03T19:38:36.731Z,40.48
2022-08-03T19:41:20.501Z,40.67
2022-08-03T19:44:07.827Z,40.46
2022-08-03T19:46:55.139Z,40.54
2022-08-03T19:50:02.789Z,40.39
2022-08-03T19:52:47.807Z,40.43
2022-08-03T19:55:33.876Z,40.54
2022-08-03T19:58:28.577Z,40.52
2022-08-03T20:01:19.216Z,40.44
2022-08-03T20:04:03.153Z,40.57
2022-08-03T20:06:47.101Z,40.56
2022-08-03T20:09:34.014Z,40.30
2022-08-03T20:12:17.264Z,40.40
2022-08-03T20:15:11.091Z,40.58
2022-08-03T20:17:58.773Z,40.66
2022-08-03T20:20:42.145Z,40.59
2022-08-03T20:23:37.374Z,40.48
2022-08-03T20:26:21.094Z,40.52
2022-08-03T20:29:10.010Z,40.73
2022-08-03T20:31:53.323Z,40.45
2022-08-03T20:34:40.366Z,40.51
2022-08-03T20:37:24.058Z,40.87
2022-08-03T20:40:08.411Z,41.04
2022-08-03T20:42:52.083Z,41.09
2022-08-03T20:45:58.589Z,41.00
2022-08-03T20:48:38.135Z,41.07
2022-08-03T20:51:50.124Z,41.32
2022-08-03T20:54:30.627Z,41.13
2022-08-03T20:57:14.919Z,41.22
2022-08-03T20:59:58.933Z,41.23
2022-08-03T21:02:42.315Z,41.55
2022-08-03T21:05:30.890Z,41.77
2022-08-03T21:08:32.578Z,41.81
2022-08-03T21:11:19.004Z,41.87
2022-08-03T21:14:07.240Z,41.68
2022-08-03T21:16:52.441Z,41.58
2022-08-03T21:19:38.560Z,42.02
2022-08-03T21:22:38.059Z,41.89
2022-08-03T21:25:25.645Z,42.14
2022-08-03T21:28:08.855Z,42.34
2022-08-03T21:30:54.481Z,42.53
2022-08-03T21:33:37.624Z,42.59
2022-08-03T21:36:24.255Z,42.49
2022-08-03T21:39:09.472Z,42.67
2022-08-03T21:41:54.729Z,42.54
2022-08-03T21:44:37.956Z,42.83
2022-08-03T21:47:23.813Z,42.70
2022-08-03T21:50:10.398Z,42.91
2022-08-03T21:52:53.996Z,42.80
2022-08-03T21:55:39.705Z,42.98
2022-08-03T21:58:29.921Z,43.09
2022-08-03T22:01:14.813Z,43.59
2022-08-03T22:03:58.721Z,43.33
2022-08-03T22:06:43.873Z,43.61
2022-08-03T22:09:27.062Z,43.40
2022-08-03T22:12:10.450Z,43.82
2022-08-03T22:15:00.319Z,43.62
2022-08-03T22:17:56.084Z,43.72
2022-08-03T22:20:40.914Z,43.99
2022-08-03T22:23:26.648Z,43.99
2022-08-03T22:26:15.313Z,44.01
2022-08-03T22:28:59.514Z,44.10
2022-08-03T22:31:57.498Z,44.55
2022-08-03T22:34:46.481Z,44.58
2022-08-03T22:37:31.364Z,44.74
2022-08-03T22:40:16.026Z,44.91
2022-08-03T22:42:59.022Z,44.73
2022-08-03T22:46:06.394Z,44.60
2022-08-03T22:48:49.923Z,44.94
2022-08-03T22:51:34.413Z,44.44
2022-08-03T22:54:17.910Z,44.81
2022-08-03T22:57:01.781Z,44.81
2022-08-03T22:59:47.257Z,44.26
2022-08-03T23:02:30.979Z,44.30
2022-08-03T23:06:00.348Z,43.93
2022-08-03T23:08:24.954Z,44.25
2022-08-03T23:11:08.899Z,43.80
2022-08-03T23:13:56.482Z,43.78
2022-08-03T23:16:41.558Z,43.95
2022-08-03T23:19:27.532Z,43.77
2022-08-03T23:22:29.741Z,43.61
2022-08-03T23:25:13.536Z,43.73
2022-08-03T23:28:05.186Z,43.64
2022-08-03T23:30:51.452Z,43.75
2022-08-03T23:33:38.128Z,43.54
2022-08-03T23:36:30.704Z,43.29
2022-08-03T23:39:18.279Z,43.16
2022-08-03T23:42:03.079Z,42.73
2022-08-03T23:44:46.479Z,42.46
2022-08-03T23:47:46.657Z,42.40
2022-08-03T23:50:41.398Z,42.64
2022-08-03T23:53:29.898Z,42.30
2022-08-03T23:56:24.969Z,42.33
2022-08-03T23:59:13.867Z,41.61
